sensor_id;sensor_type;location;lat;lon;timestamp;pressure;altitude;pressure_sealevel;temperature;humidity
68859;BME280;55864;49.238;8.092;2024-02-26T00:00:49;97518.69;;;8.80;68.26
68859;BME280;55864;49.238;8.092;2024-02-26T00:02:49;97515.72;;;8.69;68.69
68859;BME280;55864;49.238;8.092;2024-02-26T00:04:50;97516.56;;;8.61;68.74
68859;BME280;55864;49.238;8.092;2024-02-26T00:06:50;97519.78;;;8.48;67.70
68859;BME280;55864;49.238;8.092;2024-02-26T00:08:52;97523.06;;;8.28;67.81
68859;BME280;55864;49.238;8.092;2024-02-26T00:10:52;97524.81;;;8.35;68.10
68859;BME280;55864;49.238;8.092;2024-02-26T00:12:53;97525.00;;;8.34;69.73
68859;BME280;55864;49.238;8.092;2024-02-26T00:14:53;97528.66;;;8.25;69.63
68859;BME280;55864;49.238;8.092;2024-02-26T00:16:54;97519.16;;;8.24;70.07
68859;BME280;55864;49.238;8.092;2024-02-26T00:18:55;97520.84;;;8.17;70.70
68859;BME280;55864;49.238;8.092;2024-02-26T00:20:55;97527.38;;;7.59;73.39
68859;BME280;55864;49.238;8.092;2024-02-26T00:22:56;97528.53;;;7.88;72.98
68859;BME280;55864;49.238;8.092;2024-02-26T00:24:58;97529.84;;;8.14;72.49
68859;BME280;55864;49.238;8.092;2024-02-26T00:26:59;97506.50;;;8.13;72.30
68859;BME280;55864;49.238;8.092;2024-02-26T00:28:59;97511.34;;;7.93;73.97
68859;BME280;55864;49.238;8.092;2024-02-26T00:31:00;97528.53;;;7.18;75.25
68859;BME280;55864;49.238;8.092;2024-02-26T00:33:00;97535.66;;;7.71;74.54
68859;BME280;55864;49.238;8.092;2024-02-26T00:35:01;97533.59;;;7.89;73.83
68859;BME280;55864;49.238;8.092;2024-02-26T00:37:01;97529.78;;;8.00;73.22
68859;BME280;55864;49.238;8.092;2024-02-26T00:39:02;97537.63;;;8.00;74.64
68859;BME280;55864;49.238;8.092;2024-02-26T00:41:04;97538.13;;;7.95;74.31
68859;BME280;55864;49.238;8.092;2024-02-26T00:43:04;97527.22;;;7.92;75.02
68859;BME280;55864;49.238;8.092;2024-02-26T00:45:06;97525.06;;;7.95;74.91
68859;BME280;55864;49.238;8.092;2024-02-26T00:47:07;97521.81;;;7.93;75.97
68859;BME280;55864;49.238;8.092;2024-02-26T00:49:07;97534.88;;;7.93;76.98
68859;BME280;55864;49.238;8.092;2024-02-26T00:51:08;97531.28;;;7.94;76.95
68859;BME280;55864;49.238;8.092;2024-02-26T00:53:08;97531.28;;;7.94;78.70
68859;BME280;55864;49.238;8.092;2024-02-26T00:55:09;97517.34;;;8.02;78.17
68859;BME280;55864;49.238;8.092;2024-02-26T00:57:11;97526.31;;;7.77;79.82
68859;BME280;55864;49.238;8.092;2024-02-26T00:59:12;97529.13;;;7.75;80.41
68859;BME280;55864;49.238;8.092;2024-02-26T01:01:12;97531.34;;;7.86;80.45
68859;BME280;55864;49.238;8.092;2024-02-26T01:03:13;97532.34;;;7.85;80.74
68859;BME280;55864;49.238;8.092;2024-02-26T01:05:14;97538.81;;;7.89;80.68
68859;BME280;55864;49.238;8.092;2024-02-26T01:07:14;97527.34;;;7.98;82.69
68859;BME280;55864;49.238;8.092;2024-02-26T01:09:15;97528.97;;;7.99;82.16
68859;BME280;55864;49.238;8.092;2024-02-26T01:11:16;97534.59;;;7.88;81.53
68859;BME280;55864;49.238;8.092;2024-02-26T01:13:18;97546.19;;;7.86;81.25
68859;BME280;55864;49.238;8.092;2024-02-26T01:15:18;97542.69;;;7.40;83.48
68859;BME280;55864;49.238;8.092;2024-02-26T01:17:19;97545.63;;;7.37;86.22
68859;BME280;55864;49.238;8.092;2024-02-26T01:19:20;97542.34;;;7.43;86.31
68859;BME280;55864;49.238;8.092;2024-02-26T01:21:21;97543.50;;;7.71;83.87
68859;BME280;55864;49.238;8.092;2024-02-26T01:23:21;97522.09;;;7.76;84.01
68859;BME280;55864;49.238;8.092;2024-02-26T01:25:22;97522.56;;;7.79;83.58
68859;BME280;55864;49.238;8.092;2024-02-26T01:27:22;97532.38;;;7.77;83.77
68859;BME280;55864;49.238;8.092;2024-02-26T01:29:24;97541.56;;;7.65;83.17
68859;BME280;55864;49.238;8.092;2024-02-26T01:31:25;97546.94;;;7.72;85.23
68859;BME280;55864;49.238;8.092;2024-02-26T01:33:26;97543.50;;;7.71;84.64
68859;BME280;55864;49.238;8.092;2024-02-26T01:35:26;97543.84;;;7.68;83.80
68859;BME280;55864;49.238;8.092;2024-02-26T01:37:27;97546.88;;;7.49;84.86
68859;BME280;55864;49.238;8.092;2024-02-26T01:39:27;97548.22;;;7.76;85.88
68859;BME280;55864;49.238;8.092;2024-02-26T01:41:28;97549.63;;;7.55;86.53
68859;BME280;55864;49.238;8.092;2024-02-26T01:43:28;97554.59;;;7.34;88.39
68859;BME280;55864;49.238;8.092;2024-02-26T01:45:30;97554.56;;;7.42;87.54
68859;BME280;55864;49.238;8.092;2024-02-26T01:47:31;97554.66;;;7.57;87.20
68859;BME280;55864;49.238;8.092;2024-02-26T01:49:31;97558.88;;;7.27;90.81
68859;BME280;55864;49.238;8.092;2024-02-26T01:51:33;97554.75;;;7.41;88.59
68859;BME280;55864;49.238;8.092;2024-02-26T01:53:34;97546.94;;;7.72;82.98
68859;BME280;55864;49.238;8.092;2024-02-26T01:55:35;97552.13;;;7.41;83.25
68859;BME280;55864;49.238;8.092;2024-02-26T01:57:36;97544.44;;;7.47;82.99
68859;BME280;55864;49.238;8.092;2024-02-26T01:59:36;97542.72;;;7.24;85.16
68859;BME280;55864;49.238;8.092;2024-02-26T02:01:40;97544.97;;;7.35;83.82
68859;BME280;55864;49.238;8.092;2024-02-26T02:03:43;97545.25;;;7.48;83.68
68859;BME280;55864;49.238;8.092;2024-02-26T02:05:44;97544.56;;;7.54;83.79
68859;BME280;55864;49.238;8.092;2024-02-26T02:07:45;97545.22;;;7.56;84.50
68859;BME280;55864;49.238;8.092;2024-02-26T02:09:45;97539.00;;;7.57;84.78
68859;BME280;55864;49.238;8.092;2024-02-26T02:11:46;97547.81;;;7.56;85.12
68859;BME280;55864;49.238;8.092;2024-02-26T02:13:47;97547.81;;;7.56;84.27
68859;BME280;55864;49.238;8.092;2024-02-26T02:15:48;97555.88;;;7.38;85.68
68859;BME280;55864;49.238;8.092;2024-02-26T02:17:50;97544.78;;;7.44;85.32
68859;BME280;55864;49.238;8.092;2024-02-26T02:19:51;97548.19;;;7.53;85.23
68859;BME280;55864;49.238;8.092;2024-02-26T02:21:52;97548.91;;;7.31;86.53
68859;BME280;55864;49.238;8.092;2024-02-26T02:23:53;97561.38;;;6.97;89.28
68859;BME280;55864;49.238;8.092;2024-02-26T02:25:54;97562.25;;;6.57;91.61
68859;BME280;55864;49.238;8.092;2024-02-26T02:27:56;97560.94;;;6.77;90.62
68859;BME280;55864;49.238;8.092;2024-02-26T02:29:57;97563.06;;;6.65;93.36
68859;BME280;55864;49.238;8.092;2024-02-26T02:31:57;97566.66;;;6.40;94.94
68859;BME280;55864;49.238;8.092;2024-02-26T02:33:59;97568.44;;;6.40;96.01
68859;BME280;55864;49.238;8.092;2024-02-26T02:36:00;97570.22;;;6.15;98.87
68859;BME280;55864;49.238;8.092;2024-02-26T02:38:03;97566.84;;;6.47;97.61
68859;BME280;55864;49.238;8.092;2024-02-26T02:40:04;97567.66;;;6.39;99.04
68859;BME280;55864;49.238;8.092;2024-02-26T02:42:05;97568.59;;;6.38;100.00
68859;BME280;55864;49.238;8.092;2024-02-26T02:44:06;97568.09;;;6.11;100.00
68859;BME280;55864;49.238;8.092;2024-02-26T02:46:06;97567.91;;;6.04;100.00
68859;BME280;55864;49.238;8.092;2024-02-26T02:48:07;97570.06;;;6.25;100.00
68859;BME280;55864;49.238;8.092;2024-02-26T02:50:08;97569.09;;;6.50;100.00
68859;BME280;55864;49.238;8.092;2024-02-26T02:52:09;97568.56;;;6.06;100.00
68859;BME280;55864;49.238;8.092;2024-02-26T02:54:11;97565.78;;;6.08;100.00
68859;BME280;55864;49.238;8.092;2024-02-26T02:56:11;97558.50;;;6.35;100.00
68859;BME280;55864;49.238;8.092;2024-02-26T02:58:12;97559.63;;;6.57;100.00
68859;BME280;55864;49.238;8.092;2024-02-26T03:00:13;97553.72;;;6.87;100.00
68859;BME280;55864;49.238;8.092;2024-02-26T03:02:13;97548.13;;;7.14;99.69
68859;BME280;55864;49.238;8.092;2024-02-26T03:04:14;97545.28;;;7.40;100.00
68859;BME280;55864;49.238;8.092;2024-02-26T03:06:14;97542.34;;;7.43;97.30
68859;BME280;55864;49.238;8.092;2024-02-26T03:08:15;97535.97;;;7.45;95.73
68859;BME280;55864;49.238;8.092;2024-02-26T03:10:17;97539.53;;;7.44;95.53
68859;BME280;55864;49.238;8.092;2024-02-26T03:12:18;97531.53;;;7.46;97.91
68859;BME280;55864;49.238;8.092;2024-02-26T03:14:18;97537.06;;;7.51;98.58
68859;BME280;55864;49.238;8.092;2024-02-26T03:16:19;97543.91;;;7.52;98.51
68859;BME280;55864;49.238;8.092;2024-02-26T03:18:19;97537.03;;;7.59;99.23
68859;BME280;55864;49.238;8.092;2024-02-26T03:20:20;97535.44;;;7.50;99.27
68859;BME280;55864;49.238;8.092;2024-02-26T03:22:21;97534.59;;;7.57;98.99
68859;BME280;55864;49.238;8.092;2024-02-26T03:24:21;97535.06;;;7.61;98.29
68859;BME280;55864;49.238;8.092;2024-02-26T03:26:23;97531.97;;;7.57;98.69
68859;BME280;55864;49.238;8.092;2024-02-26T03:28:24;97525.59;;;7.60;98.92
68859;BME280;55864;49.238;8.092;2024-02-26T03:30:24;97525.72;;;7.67;98.51
68859;BME280;55864;49.238;8.092;2024-02-26T03:32:25;97524.06;;;7.74;97.91
68859;BME280;55864;49.238;8.092;2024-02-26T03:34:25;97530.72;;;7.76;99.11
68859;BME280;55864;49.238;8.092;2024-02-26T03:36:26;97525.00;;;7.81;96.50
68859;BME280;55864;49.238;8.092;2024-02-26T03:38:26;97518.09;;;7.88;96.05
68859;BME280;55864;49.238;8.092;2024-02-26T03:40:27;97529.38;;;7.88;97.01
68859;BME280;55864;49.238;8.092;2024-02-26T03:42:32;97525.59;;;7.91;95.76
68859;BME280;55864;49.238;8.092;2024-02-26T03:44:32;97521.00;;;7.93;96.07
68859;BME280;55864;49.238;8.092;2024-02-26T03:46:35;97519.19;;;7.93;95.54
68859;BME280;55864;49.238;8.092;2024-02-26T03:50:36;97505.78;;;7.96;96.32
68859;BME280;55864;49.238;8.092;2024-02-26T03:52:37;97522.13;;;7.98;96.95
68859;BME280;55864;49.238;8.092;2024-02-26T03:54:37;97519.31;;;8.00;96.15
68859;BME280;55864;49.238;8.092;2024-02-26T03:56:38;97526.53;;;7.98;95.37
68859;BME280;55864;49.238;8.092;2024-02-26T03:58:39;97511.34;;;7.93;96.38
68859;BME280;55864;49.238;8.092;2024-02-26T04:00:40;97505.19;;;7.86;96.33
68859;BME280;55864;49.238;8.092;2024-02-26T04:02:41;97501.91;;;7.92;96.49
68859;BME280;55864;49.238;8.092;2024-02-26T04:04:41;97500.84;;;8.01;95.85
68859;BME280;55864;49.238;8.092;2024-02-26T04:06:44;97508.50;;;8.03;96.91
68859;BME280;55864;49.238;8.092;2024-02-26T04:08:44;97493.66;;;8.03;96.10
68859;BME280;55864;49.238;8.092;2024-02-26T04:10:45;97488.78;;;8.00;95.62
68859;BME280;55864;49.238;8.092;2024-02-26T04:12:46;97489.69;;;8.07;95.99
68859;BME280;55864;49.238;8.092;2024-02-26T04:14:48;97491.03;;;8.03;96.08
68859;BME280;55864;49.238;8.092;2024-02-26T04:16:48;97493.22;;;8.14;95.81
68859;BME280;55864;49.238;8.092;2024-02-26T04:18:49;97492.53;;;7.98;96.66
68859;BME280;55864;49.238;8.092;2024-02-26T04:20:49;97490.91;;;7.97;97.17
68859;BME280;55864;49.238;8.092;2024-02-26T04:22:50;97500.84;;;8.01;96.69
68859;BME280;55864;49.238;8.092;2024-02-26T04:24:50;97493.66;;;8.03;95.53
68859;BME280;55864;49.238;8.092;2024-02-26T04:26:51;97498.88;;;8.03;95.16
68859;BME280;55864;49.238;8.092;2024-02-26T04:28:51;97498.44;;;7.69;96.91
68859;BME280;55864;49.238;8.092;2024-02-26T04:30:53;97508.25;;;7.67;95.66
68859;BME280;55864;49.238;8.092;2024-02-26T04:32:54;97500.38;;;7.75;93.13
68859;BME280;55864;49.238;8.092;2024-02-26T04:34:54;97500.72;;;7.72;95.55
68859;BME280;55864;49.238;8.092;2024-02-26T04:36:55;97505.63;;;7.67;94.83
68859;BME280;55864;49.238;8.092;2024-02-26T04:38:55;97505.78;;;7.74;96.67
68859;BME280;55864;49.238;8.092;2024-02-26T04:40:56;97514.13;;;7.69;97.29
68859;BME280;55864;49.238;8.092;2024-02-26T04:42:56;97506.88;;;7.79;97.98
68859;BME280;55864;49.238;8.092;2024-02-26T04:44:57;97507.84;;;7.78;96.88
68859;BME280;55864;49.238;8.092;2024-02-26T04:46:59;97510.13;;;7.81;96.84
68859;BME280;55864;49.238;8.092;2024-02-26T04:48:59;97513.06;;;7.78;97.20
68859;BME280;55864;49.238;8.092;2024-02-26T04:51:00;97510.25;;;7.88;97.39
68859;BME280;55864;49.238;8.092;2024-02-26T04:53:01;97502.88;;;7.91;97.23
68859;BME280;55864;49.238;8.092;2024-02-26T04:55:01;97507.22;;;7.99;95.89
68859;BME280;55864;49.238;8.092;2024-02-26T04:57:02;97518.50;;;7.99;96.40
68859;BME280;55864;49.238;8.092;2024-02-26T04:59:03;97511.31;;;8.01;95.92
68859;BME280;55864;49.238;8.092;2024-02-26T05:01:03;97514.59;;;7.95;96.50
68859;BME280;55864;49.238;8.092;2024-02-26T05:03:06;97507.19;;;8.07;95.56
68859;BME280;55864;49.238;8.092;2024-02-26T05:05:07;97509.28;;;8.11;95.29
68859;BME280;55864;49.238;8.092;2024-02-26T05:07:07;97513.88;;;8.09;96.62
68859;BME280;55864;49.238;8.092;2024-02-26T05:09:08;97514.56;;;8.03;95.35
68859;BME280;55864;49.238;8.092;2024-02-26T05:11:08;97510.16;;;8.04;95.45
68859;BME280;55864;49.238;8.092;2024-02-26T05:13:09;97511.44;;;8.08;95.21
68859;BME280;55864;49.238;8.092;2024-02-26T05:15:10;97519.06;;;8.17;94.67
68859;BME280;55864;49.238;8.092;2024-02-26T05:17:10;97521.16;;;8.14;91.88
68859;BME280;55864;49.238;8.092;2024-02-26T05:19:12;97523.88;;;8.06;90.76
68859;BME280;55864;49.238;8.092;2024-02-26T05:21:13;97530.66;;;7.92;91.24
68859;BME280;55864;49.238;8.092;2024-02-26T05:23:13;97525.25;;;7.94;93.17
68859;BME280;55864;49.238;8.092;2024-02-26T05:25:14;97525.28;;;7.86;93.18
68859;BME280;55864;49.238;8.092;2024-02-26T05:27:15;97530.97;;;7.89;94.63
68859;BME280;55864;49.238;8.092;2024-02-26T05:29:15;97537.34;;;7.95;94.72
68859;BME280;55864;49.238;8.092;2024-02-26T05:31:16;97537.16;;;7.66;96.22
68859;BME280;55864;49.238;8.092;2024-02-26T05:33:17;97531.78;;;7.90;96.56
68859;BME280;55864;49.238;8.092;2024-02-26T05:35:19;97524.03;;;8.04;94.36
68859;BME280;55864;49.238;8.092;2024-02-26T05:37:19;97534.59;;;7.88;96.00
68859;BME280;55864;49.238;8.092;2024-02-26T05:39:20;97538.81;;;7.89;97.78
68859;BME280;55864;49.238;8.092;2024-02-26T05:41:20;97538.13;;;7.95;96.77
68859;BME280;55864;49.238;8.092;2024-02-26T05:43:21;97541.75;;;7.94;97.26
68859;BME280;55864;49.238;8.092;2024-02-26T05:45:21;97544.13;;;8.04;95.80
68859;BME280;55864;49.238;8.092;2024-02-26T05:47:22;97544.09;;;8.12;95.22
68859;BME280;55864;49.238;8.092;2024-02-26T05:49:22;97552.91;;;8.11;94.83
68859;BME280;55864;49.238;8.092;2024-02-26T05:51:24;97548.16;;;8.14;95.04
68859;BME280;55864;49.238;8.092;2024-02-26T05:53:25;97559.94;;;8.10;95.38
68859;BME280;55864;49.238;8.092;2024-02-26T05:55:26;97554.84;;;8.17;95.70
68859;BME280;55864;49.238;8.092;2024-02-26T05:57:26;97556.69;;;8.08;96.50
68859;BME280;55864;49.238;8.092;2024-02-26T05:59:27;97564.44;;;7.94;98.85
68859;BME280;55864;49.238;8.092;2024-02-26T06:01:27;97564.41;;;8.02;96.80
68859;BME280;55864;49.238;8.092;2024-02-26T06:03:28;97575.50;;;8.04;96.62
68859;BME280;55864;49.238;8.092;2024-02-26T06:05:28;97564.28;;;8.18;95.09
68859;BME280;55864;49.238;8.092;2024-02-26T06:07:30;97574.94;;;8.16;96.36
68859;BME280;55864;49.238;8.092;2024-02-26T06:09:31;97565.94;;;8.19;96.41
68859;BME280;55864;49.238;8.092;2024-02-26T06:11:31;97575.75;;;8.25;96.57
68859;BME280;55864;49.238;8.092;2024-02-26T06:13:32;97577.50;;;8.32;94.10
68859;BME280;55864;49.238;8.092;2024-02-26T06:15:32;97577.56;;;8.16;95.02
68859;BME280;55864;49.238;8.092;2024-02-26T06:17:33;97577.56;;;8.16;93.02
68859;BME280;55864;49.238;8.092;2024-02-26T06:19:34;97592.34;;;7.16;99.38
68859;BME280;55864;49.238;8.092;2024-02-26T06:21:34;97586.25;;;7.47;100.00
68859;BME280;55864;49.238;8.092;2024-02-26T06:23:36;97586.84;;;7.49;95.60
68859;BME280;55864;49.238;8.092;2024-02-26T06:25:37;97592.63;;;7.29;98.83
68859;BME280;55864;49.238;8.092;2024-02-26T06:27:38;97595.19;;;7.53;95.68
68859;BME280;55864;49.238;8.092;2024-02-26T06:29:38;97594.84;;;7.56;96.79
68859;BME280;55864;49.238;8.092;2024-02-26T06:31:39;97594.84;;;7.56;96.16
68859;BME280;55864;49.238;8.092;2024-02-26T06:33:39;97600.72;;;7.58;95.55
68859;BME280;55864;49.238;8.092;2024-02-26T06:35:40;97604.00;;;7.52;98.11
68859;BME280;55864;49.238;8.092;2024-02-26T06:37:41;97608.84;;;7.63;99.68
68859;BME280;55864;49.238;8.092;2024-02-26T06:39:43;97604.06;;;7.75;99.24
68859;BME280;55864;49.238;8.092;2024-02-26T06:41:43;97612.06;;;7.81;99.86
68859;BME280;55864;49.238;8.092;2024-02-26T06:43:44;97610.13;;;7.75;99.71
68859;BME280;55864;49.238;8.092;2024-02-26T06:45:44;97614.03;;;7.79;100.00
68859;BME280;55864;49.238;8.092;2024-02-26T06:47:45;97615.13;;;7.93;99.96
68859;BME280;55864;49.238;8.092;2024-02-26T06:49:46;97609.38;;;7.89;99.64
68859;BME280;55864;49.238;8.092;2024-02-26T06:51:46;97615.56;;;8.04;98.25
68859;BME280;55864;49.238;8.092;2024-02-26T06:53:47;97620.72;;;8.12;97.59
68859;BME280;55864;49.238;8.092;2024-02-26T06:55:49;97615.16;;;8.15;98.48
68859;BME280;55864;49.238;8.092;2024-02-26T06:57:50;97617.34;;;8.04;98.27
68859;BME280;55864;49.238;8.092;2024-02-26T06:59:50;97623.28;;;8.20;97.97
68859;BME280;55864;49.238;8.092;2024-02-26T07:01:51;97617.41;;;8.18;98.27
68859;BME280;55864;49.238;8.092;2024-02-26T07:03:51;97617.22;;;8.28;98.54
68859;BME280;55864;49.238;8.092;2024-02-26T07:05:52;97622.16;;;8.23;95.22
68859;BME280;55864;49.238;8.092;2024-02-26T07:07:53;97618.25;;;8.19;94.37
68859;BME280;55864;49.238;8.092;2024-02-26T07:09:54;97626.59;;;8.14;94.50
68859;BME280;55864;49.238;8.092;2024-02-26T07:11:56;97636.13;;;8.07;95.10
68859;BME280;55864;49.238;8.092;2024-02-26T07:13:57;97634.81;;;8.03;95.67
68859;BME280;55864;49.238;8.092;2024-02-26T07:15:58;97644.13;;;8.06;97.51
68859;BME280;55864;49.238;8.092;2024-02-26T07:17:58;97638.72;;;8.07;98.40
68859;BME280;55864;49.238;8.092;2024-02-26T07:19:59;97650.00;;;8.08;100.00
68859;BME280;55864;49.238;8.092;2024-02-26T07:21:59;97646.88;;;8.12;98.97
68859;BME280;55864;49.238;8.092;2024-02-26T07:24:00;97643.56;;;8.18;99.11
68859;BME280;55864;49.238;8.092;2024-02-26T07:26:01;97643.28;;;8.13;100.00
68859;BME280;55864;49.238;8.092;2024-02-26T07:28:03;97644.56;;;8.17;99.96
68859;BME280;55864;49.238;8.092;2024-02-26T07:30:05;97644.06;;;8.14;100.00
68859;BME280;55864;49.238;8.092;2024-02-26T07:32:09;97656.66;;;8.18;100.00
68859;BME280;55864;49.238;8.092;2024-02-26T07:34:09;97649.09;;;8.23;100.00
68859;BME280;55864;49.238;8.092;2024-02-26T07:36:10;97650.09;;;8.30;99.17
68859;BME280;55864;49.238;8.092;2024-02-26T07:38:10;97645.19;;;8.27;100.00
68859;BME280;55864;49.238;8.092;2024-02-26T07:40:11;97653.38;;;8.24;100.00
68859;BME280;55864;49.238;8.092;2024-02-26T07:42:12;97654.78;;;8.35;99.78
68859;BME280;55864;49.238;8.092;2024-02-26T07:44:14;97660.88;;;8.27;100.00
68859;BME280;55864;49.238;8.092;2024-02-26T07:46:14;97659.38;;;8.33;100.00
68859;BME280;55864;49.238;8.092;2024-02-26T07:48:15;97663.81;;;8.32;100.00
68859;BME280;55864;49.238;8.092;2024-02-26T07:50:16;97668.88;;;8.34;100.00
68859;BME280;55864;49.238;8.092;2024-02-26T07:52:16;97664.47;;;8.34;100.00
68859;BME280;55864;49.238;8.092;2024-02-26T07:54:17;97673.28;;;8.33;100.00
68859;BME280;55864;49.238;8.092;2024-02-26T07:56:17;97669.13;;;8.47;99.72
68859;BME280;55864;49.238;8.092;2024-02-26T07:58:18;97670.63;;;8.41;99.34
68859;BME280;55864;49.238;8.092;2024-02-26T08:00:21;97665.03;;;8.44;100.00
68859;BME280;55864;49.238;8.092;2024-02-26T08:02:21;97656.91;;;8.39;100.00
68859;BME280;55864;49.238;8.092;2024-02-26T08:04:22;97660.47;;;8.38;100.00
68859;BME280;55864;49.238;8.092;2024-02-26T08:06:23;97665.09;;;8.36;100.00
68859;BME280;55864;49.238;8.092;2024-02-26T08:08:23;97664.78;;;8.31;98.58
68859;BME280;55864;49.238;8.092;2024-02-26T08:10:24;97672.31;;;8.34;98.39
68859;BME280;55864;49.238;8.092;2024-02-26T08:12:25;97667.09;;;8.26;97.06
68859;BME280;55864;49.238;8.092;2024-02-26T08:14:25;97671.84;;;8.23;97.70
68859;BME280;55864;49.238;8.092;2024-02-26T08:16:27;97666.75;;;8.21;100.00
68859;BME280;55864;49.238;8.092;2024-02-26T08:18:28;97667.41;;;8.23;100.00
68859;BME280;55864;49.238;8.092;2024-02-26T08:20:29;97670.69;;;8.25;100.00
68859;BME280;55864;49.238;8.092;2024-02-26T08:22:29;97677.34;;;8.36;100.00
68859;BME280;55864;49.238;8.092;2024-02-26T08:24:30;97677.59;;;8.49;100.00
68859;BME280;55864;49.238;8.092;2024-02-26T08:26:30;97668.75;;;8.50;100.00
68859;BME280;55864;49.238;8.092;2024-02-26T08:28:31;97670.19;;;8.61;100.00
68859;BME280;55864;49.238;8.092;2024-02-26T08:30:31;97673.72;;;8.68;100.00
68859;BME280;55864;49.238;8.092;2024-02-26T08:32:33;97672.38;;;8.72;100.00
68859;BME280;55864;49.238;8.092;2024-02-26T08:34:34;97676.34;;;8.68;100.00
68859;BME280;55864;49.238;8.092;2024-02-26T08:36:34;97669.13;;;8.70;100.00
68859;BME280;55864;49.238;8.092;2024-02-26T08:38:35;97662.75;;;8.72;99.68
68859;BME280;55864;49.238;8.092;2024-02-26T08:40:36;97665.50;;;8.71;100.00
68859;BME280;55864;49.238;8.092;2024-02-26T08:42:36;97667.84;;;8.66;100.00
68859;BME280;55864;49.238;8.092;2024-02-26T08:44:37;97671.75;;;8.70;100.00
68859;BME280;55864;49.238;8.092;2024-02-26T08:46:38;97677.56;;;8.80;100.00
68859;BME280;55864;49.238;8.092;2024-02-26T08:48:40;97671.97;;;8.83;100.00
68859;BME280;55864;49.238;8.092;2024-02-26T08:50:40;97676.06;;;8.85;98.87
68859;BME280;55864;49.238;8.092;2024-02-26T08:52:41;97680.38;;;9.01;98.08
68859;BME280;55864;49.238;8.092;2024-02-26T08:54:42;97685.66;;;8.93;100.00
68859;BME280;55864;49.238;8.092;2024-02-26T08:56:42;97686.44;;;8.93;100.00
68859;BME280;55864;49.238;8.092;2024-02-26T08:58:43;97687.34;;;9.08;97.88
68859;BME280;55864;49.238;8.092;2024-02-26T09:00:43;97692.66;;;9.15;96.43
68859;BME280;55864;49.238;8.092;2024-02-26T09:02:44;97690.59;;;8.88;95.43
68859;BME280;55864;49.238;8.092;2024-02-26T09:04:46;97692.91;;;8.83;94.87
68859;BME280;55864;49.238;8.092;2024-02-26T09:06:46;97692.31;;;8.73;96.67
68859;BME280;55864;49.238;8.092;2024-02-26T09:08:47;97698.19;;;8.75;95.62
68859;BME280;55864;49.238;8.092;2024-02-26T09:10:49;97701.66;;;8.75;94.55
68859;BME280;55864;49.238;8.092;2024-02-26T09:12:50;97704.09;;;8.77;95.58
68859;BME280;55864;49.238;8.092;2024-02-26T09:14:50;97704.66;;;8.64;96.25
68859;BME280;55864;49.238;8.092;2024-02-26T09:16:51;97702.66;;;8.74;95.58
68859;BME280;55864;49.238;8.092;2024-02-26T09:18:51;97701.59;;;8.83;98.44
68859;BME280;55864;49.238;8.092;2024-02-26T09:20:53;97702.41;;;8.84;98.96
68859;BME280;55864;49.238;8.092;2024-02-26T09:22:54;97703.75;;;8.80;98.11
68859;BME280;55864;49.238;8.092;2024-02-26T09:24:54;97710.53;;;8.66;98.70
68859;BME280;55864;49.238;8.092;2024-02-26T09:26:55;97717.28;;;8.61;97.58
68859;BME280;55864;49.238;8.092;2024-02-26T09:28:55;97716.94;;;8.64;99.16
68859;BME280;55864;49.238;8.092;2024-02-26T09:30:56;97705.72;;;8.78;99.01
68859;BME280;55864;49.238;8.092;2024-02-26T09:32:57;97718.84;;;8.70;99.16
68859;BME280;55864;49.238;8.092;2024-02-26T09:34:57;97723.81;;;8.65;98.93
68859;BME280;55864;49.238;8.092;2024-02-26T09:36:59;97715.47;;;8.61;100.00
68859;BME280;55864;49.238;8.092;2024-02-26T09:39:00;97716.53;;;8.75;100.00
68859;BME280;55864;49.238;8.092;2024-02-26T09:41:00;97707.41;;;8.93;100.00
68859;BME280;55864;49.238;8.092;2024-02-26T09:43:01;97715.16;;;8.87;100.00
68859;BME280;55864;49.238;8.092;2024-02-26T09:45:06;97726.25;;;8.89;100.00
68859;BME280;55864;49.238;8.092;2024-02-26T09:47:10;97723.28;;;8.92;100.00
68859;BME280;55864;49.238;8.092;2024-02-26T09:49:12;97724.50;;;8.81;100.00
68859;BME280;55864;49.238;8.092;2024-02-26T09:51:14;97732.19;;;8.83;100.00
68859;BME280;55864;49.238;8.092;2024-02-26T09:53:16;97731.38;;;8.82;100.00
68859;BME280;55864;49.238;8.092;2024-02-26T09:55:18;97727.84;;;8.98;100.00
68859;BME280;55864;49.238;8.092;2024-02-26T09:57:19;97724.00;;;9.31;98.61
68859;BME280;55864;49.238;8.092;2024-02-26T09:59:19;97727.84;;;9.35;100.00
68859;BME280;55864;49.238;8.092;2024-02-26T10:01:20;97726.00;;;9.58;99.33
68859;BME280;55864;49.238;8.092;2024-02-26T10:03:22;97727.66;;;9.74;100.00
68859;BME280;55864;49.238;8.092;2024-02-26T10:05:26;97733.56;;;9.90;97.37
68859;BME280;55864;49.238;8.092;2024-02-26T10:07:28;97720.09;;;10.08;94.64
68859;BME280;55864;49.238;8.092;2024-02-26T10:09:30;97734.50;;;10.26;93.49
68859;BME280;55864;49.238;8.092;2024-02-26T10:11:32;97718.91;;;10.39;90.23
68859;BME280;55864;49.238;8.092;2024-02-26T10:13:33;97717.59;;;10.65;86.79
68859;BME280;55864;49.238;8.092;2024-02-26T10:15:34;97716.66;;;10.72;87.82
68859;BME280;55864;49.238;8.092;2024-02-26T10:17:35;97711.47;;;10.79;88.79
68859;BME280;55864;49.238;8.092;2024-02-26T10:19:36;97720.59;;;10.83;88.36
68859;BME280;55864;49.238;8.092;2024-02-26T10:21:37;97723.38;;;10.75;87.76
68859;BME280;55864;49.238;8.092;2024-02-26T10:23:38;97732.72;;;10.63;87.69
68859;BME280;55864;49.238;8.092;2024-02-26T10:25:52;97731.78;;;10.34;88.17
68859;BME280;55864;49.238;8.092;2024-02-26T10:27:53;97732.69;;;10.27;88.60
68859;BME280;55864;49.238;8.092;2024-02-26T10:29:56;97730.69;;;10.29;88.81
68859;BME280;55864;49.238;8.092;2024-02-26T10:31:57;97737.63;;;10.07;89.63
68859;BME280;55864;49.238;8.092;2024-02-26T10:33:57;97740.25;;;10.07;89.87
68859;BME280;55864;49.238;8.092;2024-02-26T10:35:58;97735.09;;;9.99;90.78
68859;BME280;55864;49.238;8.092;2024-02-26T10:37:59;97739.00;;;9.89;90.93
68859;BME280;55864;49.238;8.092;2024-02-26T10:40:00;97747.28;;;9.63;91.90
68859;BME280;55864;49.238;8.092;2024-02-26T10:42:03;97746.84;;;9.89;91.91
68859;BME280;55864;49.238;8.092;2024-02-26T10:44:04;97750.44;;;9.73;91.71
68859;BME280;55864;49.238;8.092;2024-02-26T10:46:04;97741.41;;;9.90;93.04
68859;BME280;55864;49.238;8.092;2024-02-26T10:48:09;97749.22;;;9.84;93.77